Marlov Senior — LK6889 — position and weather

sailwx.info

Track history (hours):
 
Tides and Currents Weather Stations Pressure Air Temp Water Temp Dewpoint Dewpoint Depression Visibility Wind Speed Wind Dir Waves Ship Positions

Marlov Senior

Last reported at 2017-Jul-25 04:13 UTC. Time now 2017-Jul-25 10:33 UTC.
Position N 70°32' E 025°11'.

Length 14 m.

Type: Fishing. MMSI: 257074140.

Date/timePositionNaut miles runAvg speedWind from/ knotsBaromVisibWave heightAir tempDewpointWater temp
2017-Jul-25 04:13N 70°32' E 025°11'2 8.1
2017-Jul-25 04:00N 70°32' E 025°17'4 8.0
2017-Jul-25 03:29N 70°31' E 025°29'1 3.0
2017-Jul-25 02:59N 70°32' E 025°33'1 1.6
2017-Jul-25 02:30N 70°31' E 025°32'4 7.6
2017-Jul-25 02:00N 70°34' E 025°40'4 8.4
2017-Jul-25 01:30N 70°37' E 025°48'3 5.8
2017-Jul-25 01:00N 70°39' E 025°55'1 2.8
2017-Jul-25 00:30N 70°40' E 025°56'4 7.7
2017-Jul-25 00:00N 70°44' E 026°00'4 8.3
2017-Jul-24 23:30N 70°48' E 026°04'4 8.1
2017-Jul-24 22:59N 70°52' E 026°07'4 8.0
2017-Jul-24 22:29N 70°56' E 026°10'4 8.6
2017-Jul-24 22:00N 70°60' E 026°12'4 8.1
2017-Jul-24 21:30N 71°04' E 026°14'4 7.7
2017-Jul-24 21:00N 71°04' E 026°02'3 5.7
2017-Jul-24 20:29N 71°03' E 025°54'0 0.0
2017-Jul-24 19:59N 71°03' E 025°54'0 0.0
2017-Jul-24 19:29N 71°03' E 025°54'0 0.0
2017-Jul-24 18:59N 71°03' E 025°54'0 0.0
2017-Jul-24 18:29N 71°03' E 025°54'0 1.0
2017-Jul-24 18:00N 71°03' E 025°55'0 0.1
2017-Jul-24 17:29N 71°03' E 025°55'0 0.0
2017-Jul-24 16:59N 71°03' E 025°55'0 0.0
2017-Jul-24 16:28N 71°03' E 025°55'0 0.9
2017-Jul-24 15:59N 71°03' E 025°54'0 0.0
2017-Jul-24 12:59N 71°03' E 025°54'0 0.0
2017-Jul-24 12:29N 71°03' E 025°54'0 0.0
2017-Jul-24 11:56N 71°03' E 025°54'0 0.0
2017-Jul-24 11:29N 71°03' E 025°54'0 0.0
2017-Jul-24 10:56N 71°03' E 025°54'0 0.0
2017-Jul-24 10:29N 71°03' E 025°54'0 0.0
2017-Jul-24 09:59N 71°03' E 025°54'0 0.0
2017-Jul-24 09:29N 71°03' E 025°54'0 0.0
2017-Jul-24 08:59N 71°03' E 025°54'0 0.0
2017-Jul-24 08:29N 71°03' E 025°54'0 0.0
2017-Jul-24 07:57N 71°03' E 025°54'0 0.0
2017-Jul-24 07:29N 71°03' E 025°54'0 0.0
2017-Jul-24 06:59N 71°03' E 025°54'0 0.0
2017-Jul-24 06:29N 71°03' E 025°54'0 0.0
2017-Jul-24 06:00N 71°03' E 025°54'0 0.0
2017-Jul-24 05:30N 71°03' E 025°54'0 0.0
2017-Jul-24 05:00N 71°03' E 025°54'0 0.0
2017-Jul-24 04:30N 71°03' E 025°54'0 0.0
2017-Jul-24 04:00N 71°03' E 025°54'0 0.0
2017-Jul-24 03:30N 71°03' E 025°54'0 0.0
2017-Jul-24 03:00N 71°03' E 025°54'0 0.0
2017-Jul-24 02:30N 71°03' E 025°54'0 0.0
2017-Jul-24 02:00N 71°03' E 025°54'0 0.0
2017-Jul-24 01:30N 71°03' E 025°54'0 0.0
2017-Jul-24 00:57N 71°03' E 025°54'0 0.0
2017-Jul-24 00:30N 71°03' E 025°54'0 0.0
2017-Jul-24 00:00N 71°03' E 025°54'0 0.0
2017-Jul-23 23:30N 71°03' E 025°54'0 0.0
2017-Jul-23 23:00N 71°03' E 025°54'0 0.0
2017-Jul-23 22:30N 71°03' E 025°54'0 0.0
2017-Jul-23 22:00N 71°03' E 025°54'0 0.0
2017-Jul-23 21:30N 71°03' E 025°54'0 0.0
2017-Jul-23 21:00N 71°03' E 025°54'0 0.0
2017-Jul-23 20:30N 71°03' E 025°54'0 0.0
2017-Jul-23 20:00N 71°03' E 025°54'0 0.0
2017-Jul-23 19:30N 71°03' E 025°54'0 0.0
2017-Jul-23 19:00N 71°03' E 025°54'0 0.0
2017-Jul-23 18:30N 71°03' E 025°54'0 0.0
2017-Jul-23 18:00N 71°03' E 025°54'0 0.0
2017-Jul-23 17:30N 71°03' E 025°54'0 0.0
2017-Jul-23 17:00N 71°03' E 025°54'0 0.0
2017-Jul-23 16:30N 71°03' E 025°54'0 0.0
2017-Jul-23 16:00N 71°03' E 025°54'0 0.0
2017-Jul-23 15:30N 71°03' E 025°54'0 0.0
2017-Jul-23 15:00N 71°03' E 025°54'0 0.0
2017-Jul-23 14:30N 71°03' E 025°54'0 0.0
2017-Jul-23 14:00N 71°03' E 025°54'0 0.0
2017-Jul-23 13:30N 71°03' E 025°54'0 0.0
2017-Jul-23 13:00N 71°03' E 025°54'0 0.0
2017-Jul-23 12:30N 71°03' E 025°54'0 0.0
2017-Jul-23 12:00N 71°03' E 025°54'0 0.0
2017-Jul-23 11:30N 71°03' E 025°54'0 0.0
2017-Jul-23 11:00N 71°03' E 025°54'0 0.0
2017-Jul-23 10:30N 71°03' E 025°54'0 0.0
2017-Jul-23 10:00N 71°03' E 025°54'0 0.0
2017-Jul-23 09:30N 71°03' E 025°54'0 0.0
2017-Jul-23 09:00N 71°03' E 025°54'0 0.0
2017-Jul-23 08:30N 71°03' E 025°54'0 0.0
2017-Jul-23 08:00N 71°03' E 025°54'0 0.0
2017-Jul-23 07:30N 71°03' E 025°54'0 0.0
2017-Jul-23 07:00N 71°03' E 025°54'0 0.0
2017-Jul-23 06:30N 71°03' E 025°54'0 0.0
2017-Jul-23 05:57N 71°03' E 025°54'0 0.0
2017-Jul-23 05:30N 71°03' E 025°54'0 0.0
2017-Jul-23 05:00N 71°03' E 025°54'0 0.0
2017-Jul-23 04:30N 71°03' E 025°54'0 0.0
2017-Jul-23 04:00N 71°03' E 025°54'0 0.0
2017-Jul-23 03:30N 71°03' E 025°54'0 0.0
2017-Jul-23 03:00N 71°03' E 025°54'0 0.0
2017-Jul-23 02:30N 71°03' E 025°54'0 0.0
2017-Jul-23 02:00N 71°03' E 025°54'0 0.0
2017-Jul-23 01:30N 71°03' E 025°54'0 0.0
2017-Jul-23 01:00N 71°03' E 025°54'0 0.0
2017-Jul-23 00:30N 71°03' E 025°54'0 0.0
2017-Jul-23 00:00N 71°03' E 025°54'0 0.0
2017-Jul-22 23:30N 71°03' E 025°54'0 0.0
2017-Jul-22 23:00N 71°03' E 025°54'0 0.0
2017-Jul-22 22:30N 71°03' E 025°54'0 0.0
2017-Jul-22 22:00N 71°03' E 025°54'0 0.0
2017-Jul-22 21:30N 71°03' E 025°54'0 0.0
2017-Jul-22 21:00N 71°03' E 025°54'0 0.0
2017-Jul-22 20:30N 71°03' E 025°54'0 0.0
2017-Jul-22 20:00N 71°03' E 025°54'0 0.0
2017-Jul-22 19:30N 71°03' E 025°54'0 0.0
2017-Jul-22 19:00N 71°03' E 025°54'0 0.0
2017-Jul-22 18:30N 71°03' E 025°54'0 0.0
2017-Jul-22 18:00N 71°03' E 025°54'0 0.0
2017-Jul-22 17:30N 71°03' E 025°54'0 0.0
2017-Jul-22 17:00N 71°03' E 025°54'0 0.0
2017-Jul-22 16:30N 71°03' E 025°54'0 0.0
2017-Jul-22 16:00N 71°03' E 025°54'0 0.0
2017-Jul-22 15:30N 71°03' E 025°54'0 0.0
2017-Jul-22 15:00N 71°03' E 025°54'0 0.0
2017-Jul-22 14:00N 71°03' E 025°54'0 0.0
2017-Jul-22 13:30N 71°03' E 025°54'0 0.0
2017-Jul-22 13:00N 71°03' E 025°54'0 0.0
2017-Jul-22 12:30N 71°03' E 025°54'0 0.0
2017-Jul-22 12:00N 71°03' E 025°54'0 0.0
2017-Jul-22 11:24N 71°03' E 025°54'0 0.0
2017-Jul-22 11:00N 71°03' E 025°54'0 0.0
2017-Jul-22 10:30N 71°03' E 025°54'0 0.0
2017-Jul-22 10:00N 71°03' E 025°54'0 0.0
2017-Jul-22 09:30N 71°03' E 025°54'0 0.0
2017-Jul-22 08:57N 71°03' E 025°54'0 0.0
2017-Jul-22 08:27N 71°03' E 025°54'0 0.0
2017-Jul-22 08:00N 71°03' E 025°54'0 0.0
2017-Jul-22 07:30N 71°03' E 025°54'0 0.0
2017-Jul-22 07:00N 71°03' E 025°54'0 0.0
2017-Jul-22 06:30N 71°03' E 025°54'0 0.0
2017-Jul-22 05:57N 71°03' E 025°54'0 0.0
2017-Jul-22 05:30N 71°03' E 025°54'0 0.0
2017-Jul-22 05:00N 71°03' E 025°54'0 0.0
2017-Jul-22 04:30N 71°03' E 025°54'0 0.0
2017-Jul-22 04:00N 71°03' E 025°54'0 0.0
2017-Jul-22 03:30N 71°03' E 025°54'0 0.0
2017-Jul-22 03:00N 71°03' E 025°54'0 0.0
2017-Jul-22 02:30N 71°03' E 025°54'0 0.0
2017-Jul-22 02:00N 71°03' E 025°54'0 0.0
2017-Jul-22 01:30N 71°03' E 025°54'0 0.0
2017-Jul-22 01:00N 71°03' E 025°54'0 0.0
2017-Jul-22 00:30N 71°03' E 025°54'0 0.0
2017-Jul-22 00:00N 71°03' E 025°54'0 0.0
2017-Jul-21 23:30N 71°03' E 025°54'0 0.0
2017-Jul-21 23:00N 71°03' E 025°54'0 0.0
2017-Jul-21 22:30N 71°03' E 025°54'0 0.0
2017-Jul-21 22:00N 71°03' E 025°54'0 0.0
2017-Jul-21 21:30N 71°03' E 025°54'0 0.0
2017-Jul-21 21:00N 71°03' E 025°54'0 0.0
2017-Jul-21 20:30N 71°03' E 025°54'0 0.0
2017-Jul-21 20:00N 71°03' E 025°54'0 0.0
2017-Jul-21 19:30N 71°03' E 025°54'0 0.0
2017-Jul-21 19:00N 71°03' E 025°54'0 0.0
2017-Jul-21 18:30N 71°03' E 025°54'0 0.0
2017-Jul-21 18:00N 71°03' E 025°54'0 0.0
2017-Jul-21 17:30N 71°03' E 025°54'0 0.0
2017-Jul-21 17:00N 71°03' E 025°54'0 0.0
2017-Jul-21 16:30N 71°03' E 025°54'0 0.0
2017-Jul-21 16:00N 71°03' E 025°54'0 0.0
2017-Jul-21 15:30N 71°03' E 025°54'0 0.0
2017-Jul-21 15:00N 71°03' E 025°54'0 0.0
2017-Jul-21 14:27N 71°03' E 025°54'0 0.0
2017-Jul-21 14:00N 71°03' E 025°54'0 0.0
2017-Jul-21 13:30N 71°03' E 025°54'0 0.0
2017-Jul-21 13:00N 71°03' E 025°54'0 0.0
2017-Jul-21 12:30N 71°03' E 025°54'0 0.0
2017-Jul-21 12:00N 71°03' E 025°54'0 0.0
2017-Jul-21 11:30N 71°03' E 025°54'0 0.0
2017-Jul-21 11:00N 71°03' E 025°54'0 0.0
2017-Jul-21 10:30N 71°03' E 025°54'0 0.0
2017-Jul-21 10:00N 71°03' E 025°54'0 0.0
2017-Jul-21 09:30N 71°03' E 025°54'0 0.0
2017-Jul-21 09:00N 71°03' E 025°54'0 0.0
2017-Jul-21 08:30N 71°03' E 025°54'0 0.0
2017-Jul-21 08:00N 71°03' E 025°54'0 0.0
2017-Jul-21 07:30N 71°03' E 025°54'0 0.0
2017-Jul-21 07:00N 71°03' E 025°54'0 0.0
2017-Jul-21 06:30N 71°03' E 025°54'0 0.0
2017-Jul-21 06:00N 71°03' E 025°54'0 0.0
2017-Jul-21 05:27N 71°03' E 025°54'0 0.0
2017-Jul-21 05:00N 71°03' E 025°54'0 0.0
2017-Jul-21 04:27N 71°03' E 025°54'0 0.0
2017-Jul-21 04:00N 71°03' E 025°54'0 0.0
2017-Jul-21 03:30N 71°03' E 025°54'0 0.0
2017-Jul-21 03:00N 71°03' E 025°54'0 0.0
2017-Jul-21 02:30N 71°03' E 025°54'0 0.0
2017-Jul-21 01:57N 71°03' E 025°54'0 0.0
2017-Jul-21 01:27N 71°03' E 025°54'0 0.0
2017-Jul-21 01:00N 71°03' E 025°54'0 0.0
2017-Jul-21 00:30N 71°03' E 025°54'0 0.0
2017-Jul-21 00:00N 71°03' E 025°54'0 0.0
2017-Jul-20 23:30N 71°03' E 025°54'0 0.0
2017-Jul-20 23:00N 71°03' E 025°54'0 0.0
2017-Jul-20 22:30N 71°03' E 025°54'0 0.0
2017-Jul-20 22:00N 71°03' E 025°54'0 0.0
2017-Jul-20 21:30N 71°03' E 025°54'0 0.0
2017-Jul-20 21:00N 71°03' E 025°54'0 0.0
2017-Jul-20 20:30N 71°03' E 025°54'0 0.0
2017-Jul-20 20:00N 71°03' E 025°54'0 0.0
2017-Jul-20 19:30N 71°03' E 025°54'0 0.0
2017-Jul-20 19:00N 71°03' E 025°54'0 0.0
2017-Jul-20 18:30N 71°03' E 025°54'0 0.0
2017-Jul-20 18:00N 71°03' E 025°54'0 0.0
2017-Jul-20 17:30N 71°03' E 025°54'0 0.0
2017-Jul-20 17:00N 71°03' E 025°54'0 0.0
2017-Jul-20 16:30N 71°03' E 025°54'0 0.0
2017-Jul-20 16:00N 71°03' E 025°54'0 0.0
2017-Jul-20 15:30N 71°03' E 025°54'0 0.0
2017-Jul-20 15:00N 71°03' E 025°54'0 0.0
2017-Jul-20 14:00N 71°03' E 025°54'0 0.0
2017-Jul-20 13:30N 71°03' E 025°54'0 0.0
2017-Jul-20 13:00N 71°03' E 025°54'0 0.0
2017-Jul-20 12:30N 71°03' E 025°54'0 0.0
2017-Jul-20 12:00N 71°03' E 025°54'0 0.0
2017-Jul-20 11:30N 71°03' E 025°54'0 0.0
2017-Jul-20 11:00N 71°03' E 025°54'0 0.0
2017-Jul-20 10:30N 71°03' E 025°54'0 0.0
2017-Jul-20 10:00N 71°03' E 025°54'0 0.0
2017-Jul-20 09:30N 71°03' E 025°54'0 0.0
2017-Jul-20 09:00N 71°03' E 025°54'0 0.0
2017-Jul-20 08:30N 71°03' E 025°54'0 0.0
2017-Jul-20 08:00N 71°03' E 025°54'0 0.0
2017-Jul-20 07:30N 71°03' E 025°54'0 0.0
2017-Jul-20 06:57N 71°03' E 025°54'0 0.0
2017-Jul-20 06:30N 71°03' E 025°54'0 0.0
2017-Jul-20 06:00N 71°03' E 025°54'0 0.0
2017-Jul-20 05:30N 71°03' E 025°54'0 0.0
2017-Jul-20 05:00N 71°03' E 025°54'0 0.0
2017-Jul-20 04:30N 71°03' E 025°54'0 0.0
2017-Jul-20 04:00N 71°03' E 025°54'0 0.0
2017-Jul-20 03:30N 71°03' E 025°54'0 0.0
2017-Jul-20 03:00N 71°03' E 025°54'0 0.0
2017-Jul-20 02:30N 71°03' E 025°54'0 0.0
2017-Jul-20 02:00N 71°03' E 025°54'0 0.0
2017-Jul-20 01:30N 71°03' E 025°54'0 0.0
2017-Jul-20 01:00N 71°03' E 025°54'0 0.0
2017-Jul-20 00:30N 71°03' E 025°54'0 0.0
2017-Jul-20 00:00N 71°03' E 025°54'0 0.0
2017-Jul-19 23:30N 71°03' E 025°54'0 0.0
2017-Jul-19 23:00N 71°03' E 025°54'0 0.0
2017-Jul-19 22:30N 71°03' E 025°54'0 0.0
2017-Jul-19 22:00N 71°03' E 025°54'0 0.0
2017-Jul-19 21:30N 71°03' E 025°54'0 0.0
2017-Jul-19 21:00N 71°03' E 025°54'0 0.0
2017-Jul-19 20:30N 71°03' E 025°54'0 0.0
2017-Jul-19 20:00N 71°03' E 025°54'0 0.0
2017-Jul-19 19:30N 71°03' E 025°54'0 0.0
2017-Jul-19 19:00N 71°03' E 025°54'0 0.0
2017-Jul-19 18:30N 71°03' E 025°54'0 0.0
2017-Jul-19 17:57N 71°03' E 025°54'0 0.0
2017-Jul-19 17:30N 71°03' E 025°54'0 0.0
2017-Jul-19 17:00N 71°03' E 025°54'0 0.0
2017-Jul-19 16:30N 71°03' E 025°54'0 0.0
2017-Jul-19 16:00N 71°03' E 025°54'0 0.0
2017-Jul-19 15:30N 71°03' E 025°54'0 0.0
2017-Jul-19 15:00N 71°03' E 025°54'0 0.0
2017-Jul-19 14:31N 71°03' E 025°54'0 0.0
2017-Jul-19 14:00N 71°03' E 025°54'0 0.0
2017-Jul-19 13:31N 71°03' E 025°54'0 0.0
2017-Jul-19 13:00N 71°03' E 025°54'0 0.0
2017-Jul-19 12:28N 71°03' E 025°54'0 0.0
2017-Jul-19 12:01N 71°03' E 025°54'0 0.0
2017-Jul-19 11:31N 71°03' E 025°54'0 0.0
2017-Jul-19 10:58N 71°03' E 025°54'0 0.0
2017-Jul-19 10:31N 71°03' E 025°54'0 0.0
2017-Jul-19 09:58N 71°03' E 025°54'0 0.0
2017-Jul-19 09:28N 71°03' E 025°54'0 0.0
2017-Jul-19 08:58N 71°03' E 025°54'0 0.0
2017-Jul-19 08:28N 71°03' E 025°54'0 0.0
2017-Jul-19 07:58N 71°03' E 025°54'0 0.0
2017-Jul-19 07:28N 71°03' E 025°54'0 0.0
2017-Jul-19 06:58N 71°03' E 025°54'0 0.0
2017-Jul-19 06:28N 71°03' E 025°54'0 0.0
2017-Jul-19 05:58N 71°03' E 025°54'0 0.0
2017-Jul-19 05:28N 71°03' E 025°54'0 0.0
2017-Jul-19 04:58N 71°03' E 025°54'0 0.0
2017-Jul-19 04:28N 71°03' E 025°54'0 0.0
2017-Jul-19 03:58N 71°03' E 025°54'0 0.0
2017-Jul-19 03:28N 71°03' E 025°54'0 0.0
2017-Jul-19 02:58N 71°03' E 025°54'0 0.0
2017-Jul-19 02:28N 71°03' E 025°54'0 0.0
2017-Jul-19 01:58N 71°03' E 025°54'0 0.0
2017-Jul-19 01:28N 71°03' E 025°54'0 0.0
2017-Jul-19 00:58N 71°03' E 025°54'0 0.0
2017-Jul-19 00:28N 71°03' E 025°54'0 0.0
2017-Jul-18 23:58N 71°03' E 025°54'0 0.0
2017-Jul-18 23:25N 71°03' E 025°54'0 0.0
2017-Jul-18 22:58N 71°03' E 025°54'0 0.0
2017-Jul-18 22:28N 71°03' E 025°54'0 0.0
2017-Jul-18 21:58N 71°03' E 025°54'0 0.0
2017-Jul-18 21:28N 71°03' E 025°54'0 0.0
2017-Jul-18 20:58N 71°03' E 025°54'0 0.0
2017-Jul-18 20:28N 71°03' E 025°54'0 0.0
2017-Jul-18 19:58N 71°03' E 025°54'0 0.0
2017-Jul-18 19:28N 71°03' E 025°54'0 0.0
2017-Jul-18 18:58N 71°03' E 025°54'0 0.0
2017-Jul-18 18:28N 71°03' E 025°54'0 0.0
2017-Jul-18 17:58N 71°03' E 025°54'0 0.0
2017-Jul-18 17:28N 71°03' E 025°54'0 0.0
2017-Jul-18 16:55N 71°03' E 025°54'0 0.0
2017-Jul-18 16:28N 71°03' E 025°54'0 0.0
2017-Jul-18 15:58N 71°03' E 025°54'0 0.0
2017-Jul-18 15:28N 71°03' E 025°54'0 0.0
2017-Jul-18 14:58N 71°03' E 025°54'0 0.0
2017-Jul-18 13:58N 71°03' E 025°54'0 0.0
2017-Jul-18 13:28N 71°03' E 025°54'0 0.0
2017-Jul-18 12:55N 71°03' E 025°54'0 0.0
2017-Jul-18 12:28N 71°03' E 025°54'0 0.0
2017-Jul-18 11:58N 71°03' E 025°54'0 0.0
2017-Jul-18 11:25N 71°03' E 025°54'0 0.0
2017-Jul-18 10:58N 71°03' E 025°54'0 0.0
2017-Jul-18 10:28N 71°03' E 025°54'0 0.0
2017-Jul-18 09:58N 71°03' E 025°54'0 0.0
2017-Jul-18 09:28N 71°03' E 025°54'0 0.0
2017-Jul-18 08:58N 71°03' E 025°54'0 0.0
2017-Jul-18 08:28N 71°03' E 025°54'0 0.0
2017-Jul-18 07:58N 71°03' E 025°54'0 0.0
2017-Jul-18 07:25N 71°03' E 025°54'0 0.0
2017-Jul-18 06:58N 71°03' E 025°54'0 0.0
2017-Jul-18 06:28N 71°03' E 025°54'0 0.0
2017-Jul-18 05:58N 71°03' E 025°54'0 0.0
2017-Jul-18 05:28N 71°03' E 025°54'0 0.0
2017-Jul-18 04:58N 71°03' E 025°54'0 0.0
2017-Jul-18 04:28N 71°03' E 025°54'0 0.0
2017-Jul-18 03:58N 71°03' E 025°54'0 0.0
2017-Jul-18 03:28N 71°03' E 025°54'0 0.0
2017-Jul-18 02:58N 71°03' E 025°54'0 0.0
2017-Jul-18 02:28N 71°03' E 025°54'0 0.0
2017-Jul-18 01:58N 71°03' E 025°54'0 0.0
2017-Jul-18 01:25N 71°03' E 025°54'0 0.0
2017-Jul-18 00:58N 71°03' E 025°54'0 0.0
2017-Jul-18 00:28N 71°03' E 025°54'0 0.0
2017-Jul-17 23:58N 71°03' E 025°54'0 0.0
2017-Jul-17 23:28N 71°03' E 025°54'0 0.0
2017-Jul-17 22:58N 71°03' E 025°54'0 0.0
2017-Jul-17 22:28N 71°03' E 025°54'0 0.0
2017-Jul-17 21:58N 71°03' E 025°54'0 0.0
2017-Jul-17 21:28N 71°03' E 025°54'0 0.0
2017-Jul-17 20:55N 71°03' E 025°54'0 0.0
2017-Jul-17 20:28N 71°03' E 025°54'0 0.0
2017-Jul-17 19:58N 71°03' E 025°54'0 0.0
2017-Jul-17 19:25N 71°03' E 025°54'0 0.0
2017-Jul-17 18:58N 71°03' E 025°54'0 0.0
2017-Jul-17 18:28N 71°03' E 025°54'0 0.0
2017-Jul-17 17:58N 71°03' E 025°54'0 0.0
2017-Jul-17 17:28N 71°03' E 025°54'0 0.0
2017-Jul-17 16:58N 71°03' E 025°54'0 0.0
2017-Jul-17 16:25N 71°03' E 025°54'0 0.0
2017-Jul-17 15:58N 71°03' E 025°54'0 0.0
2017-Jul-17 15:28N 71°03' E 025°54'0 0.0
2017-Jul-17 14:58N 71°03' E 025°54'0 0.0
2017-Jul-17 14:28N 71°03' E 025°54'0 0.0
2017-Jul-17 13:58N 71°03' E 025°54'0 0.0
2017-Jul-17 13:22N 71°03' E 025°54'0 0.0
2017-Jul-17 12:58N 71°03' E 025°54'0 0.0
2017-Jul-17 12:28N 71°03' E 025°54'0 0.0
2017-Jul-17 11:58N 71°03' E 025°54'0 0.0
2017-Jul-17 11:28N 71°03' E 025°54'0 0.0
2017-Jul-17 10:58N 71°03' E 025°54'0 0.0
2017-Jul-17 10:28N 71°03' E 025°54'0 0.0
2017-Jul-17 09:58N 71°03' E 025°54'0 0.0
2017-Jul-17 09:28N 71°03' E 025°54'0 0.0
2017-Jul-17 08:58N 71°03' E 025°54'0 0.0
2017-Jul-17 08:28N 71°03' E 025°54'0 0.0
2017-Jul-17 07:55N 71°03' E 025°54'0 0.0
2017-Jul-17 07:28N 71°03' E 025°54'0 0.0
2017-Jul-17 06:58N 71°03' E 025°54'0 0.0
2017-Jul-17 06:25N 71°03' E 025°54'0 0.0
2017-Jul-17 05:58N 71°03' E 025°54'0 0.0
2017-Jul-17 05:28N 71°03' E 025°54'0 0.0
2017-Jul-17 04:58N 71°03' E 025°54'0 0.0
2017-Jul-17 04:28N 71°03' E 025°54'0 0.0
2017-Jul-17 03:58N 71°03' E 025°54'0 0.0
2017-Jul-17 03:28N 71°03' E 025°54'0 0.0
2017-Jul-17 02:58N 71°03' E 025°54'0 0.0
2017-Jul-17 02:28N 71°03' E 025°54'0 0.0
2017-Jul-17 01:58N 71°03' E 025°54'0 0.0
2017-Jul-17 01:28N 71°03' E 025°54'0 0.0
2017-Jul-17 00:58N 71°03' E 025°54'0 0.0
2017-Jul-17 00:28N 71°03' E 025°54'0 0.0
2017-Jul-16 23:58N 71°03' E 025°54'0 0.0
2017-Jul-16 23:28N 71°03' E 025°54'0 0.0
2017-Jul-16 22:58N 71°03' E 025°54'0 0.0
2017-Jul-16 22:28N 71°03' E 025°54'0 0.0
2017-Jul-16 21:58N 71°03' E 025°54'0 0.0
2017-Jul-16 21:28N 71°03' E 025°54'0 0.0
2017-Jul-16 20:58N 71°03' E 025°54'0 0.0
2017-Jul-16 20:28N 71°03' E 025°54'0 0.0
2017-Jul-16 19:58N 71°03' E 025°54'0 0.0
2017-Jul-16 19:28N 71°03' E 025°54'0 0.0
2017-Jul-16 18:58N 71°03' E 025°54'0 0.0
2017-Jul-16 18:28N 71°03' E 025°54'0 0.0
2017-Jul-16 17:58N 71°03' E 025°54'0 0.0
2017-Jul-16 17:28N 71°03' E 025°54'0 0.0
2017-Jul-16 16:58N 71°03' E 025°54'0 0.0
2017-Jul-16 16:28N 71°03' E 025°54'0 0.0
2017-Jul-16 15:58N 71°03' E 025°54'0 0.0
2017-Jul-16 15:28N 71°03' E 025°54'0 0.0
2017-Jul-16 14:58N 71°03' E 025°54'0 0.0
2017-Jul-16 14:25N 71°03' E 025°54'0 0.0
2017-Jul-16 13:58N 71°03' E 025°54'0 0.0
2017-Jul-16 13:28N 71°03' E 025°54'0 0.0
2017-Jul-16 12:55N 71°03' E 025°54'0 0.0
2017-Jul-16 12:28N 71°03' E 025°54'0 0.0
2017-Jul-16 11:58N 71°03' E 025°54'0 0.0
2017-Jul-16 11:28N 71°03' E 025°54'0 0.0
2017-Jul-16 10:58N 71°03' E 025°54'0 0.0
2017-Jul-16 10:28N 71°03' E 025°54'0 0.0
2017-Jul-16 09:58N 71°03' E 025°54'0 0.0
2017-Jul-16 09:25N 71°03' E 025°54'0 0.0
2017-Jul-16 08:58N 71°03' E 025°54'0 0.0
2017-Jul-16 08:25N 71°03' E 025°54'0 0.0
2017-Jul-16 07:58N 71°03' E 025°54'0 0.0
2017-Jul-16 07:28N 71°03' E 025°54'0 0.0
2017-Jul-16 06:58N 71°03' E 025°54'0 0.0
2017-Jul-16 06:28N 71°03' E 025°54'0 0.0
2017-Jul-16 05:58N 71°03' E 025°54'0 0.0
2017-Jul-16 05:28N 71°03' E 025°54'0 0.0
2017-Jul-16 04:58N 71°03' E 025°54'0 0.0
2017-Jul-16 04:25N 71°03' E 025°54'0 0.0
2017-Jul-16 03:58N 71°03' E 025°54'0 0.0
2017-Jul-16 03:25N 71°03' E 025°54'0 0.0
2017-Jul-16 02:58N 71°03' E 025°54'0 0.0
2017-Jul-16 02:28N 71°03' E 025°54'0 0.0
2017-Jul-16 01:58N 71°03' E 025°54'0 0.0
2017-Jul-16 01:28N 71°03' E 025°54'0 0.0
2017-Jul-16 00:58N 71°03' E 025°54'0 0.0
2017-Jul-16 00:28N 71°03' E 025°54'0 0.0
2017-Jul-15 23:58N 71°03' E 025°54'0 0.0
2017-Jul-15 23:28N 71°03' E 025°54'0 0.0
2017-Jul-15 22:58N 71°03' E 025°54'0 0.0
2017-Jul-15 22:28N 71°03' E 025°54'0 0.0
2017-Jul-15 21:58N 71°03' E 025°54'0 0.0
2017-Jul-15 21:28N 71°03' E 025°54'0 0.0
2017-Jul-15 20:58N 71°03' E 025°54'0 0.0
2017-Jul-15 20:28N 71°03' E 025°54'0 0.0
2017-Jul-15 19:58N 71°03' E 025°54'0 0.0
2017-Jul-15 19:28N 71°03' E 025°54'0 0.0
2017-Jul-15 18:58N 71°03' E 025°54'0 0.0
2017-Jul-15 18:28N 71°03' E 025°54'0 0.0
2017-Jul-15 17:55N 71°03' E 025°54'0 0.0
2017-Jul-15 17:28N 71°03' E 025°54'0 0.0
2017-Jul-15 16:58N 71°03' E 025°54'0 0.0
2017-Jul-15 16:28N 71°03' E 025°54'0 0.0
2017-Jul-15 15:58N 71°03' E 025°54'0 0.0
2017-Jul-15 15:28N 71°03' E 025°54'0 0.0
2017-Jul-15 14:58N 71°03' E 025°54'0 0.0
2017-Jul-15 13:58N 71°03' E 025°54'0 0.0
2017-Jul-15 13:28N 71°03' E 025°54'0 0.0
2017-Jul-15 12:58N 71°03' E 025°54'0 0.0
2017-Jul-15 12:28N 71°03' E 025°54'0 0.0
2017-Jul-15 11:58N 71°03' E 025°54'0 0.0
2017-Jul-15 11:19N 71°03' E 025°54'0 0.0
2017-Jul-15 10:55N 71°03' E 025°54'0 0.0
2017-Jul-15 10:28N 71°03' E 025°54'0 0.0
2017-Jul-15 09:58N 71°03' E 025°54'0 0.0
2017-Jul-15 09:28N 71°03' E 025°54'0 0.0
2017-Jul-15 08:58N 71°03' E 025°54'0 0.0
2017-Jul-15 08:28N 71°03' E 025°54'0 0.0
2017-Jul-15 07:58N 71°03' E 025°54'0 0.0
2017-Jul-15 07:28N 71°03' E 025°54'0 0.0
2017-Jul-15 06:58N 71°03' E 025°54'0 0.0
2017-Jul-15 06:28N 71°03' E 025°54'0 0.0
2017-Jul-15 05:58N 71°03' E 025°54'0 0.0
2017-Jul-15 05:28N 71°03' E 025°54'0 0.0
2017-Jul-15 04:58N 71°03' E 025°54'0 0.0
2017-Jul-15 04:28N 71°03' E 025°54'  
Track history (hours):
 
Tides and Currents Weather Stations Pressure Air Temp Water Temp Dewpoint Dewpoint Depression Visibility Wind Speed Wind Dir Waves Ship Positions

Marlov Senior

Last reported at 2017-Jul-25 04:13 UTC. Time now 2017-Jul-25 10:33 UTC.
Position N 70°32' E 025°11'.

Length 14 m.

Type: Fishing. MMSI: 257074140.

Date/timePositionNaut miles runAvg speedWind from/ knotsBaromVisibWave heightAir tempDewpointWater temp
2017-Jul-25 04:13N 70°32' E 025°11'2 8.1
2017-Jul-25 04:00N 70°32' E 025°17'4 8.0
2017-Jul-25 03:29N 70°31' E 025°29'1 3.0
2017-Jul-25 02:59N 70°32' E 025°33'1 1.6
2017-Jul-25 02:30N 70°31' E 025°32'4 7.6
2017-Jul-25 02:00N 70°34' E 025°40'4 8.4
2017-Jul-25 01:30N 70°37' E 025°48'3 5.8
2017-Jul-25 01:00N 70°39' E 025°55'1 2.8
2017-Jul-25 00:30N 70°40' E 025°56'4 7.7
2017-Jul-25 00:00N 70°44' E 026°00'4 8.3
2017-Jul-24 23:30N 70°48' E 026°04'4 8.1
2017-Jul-24 22:59N 70°52' E 026°07'4 8.0
2017-Jul-24 22:29N 70°56' E 026°10'4 8.6
2017-Jul-24 22:00N 70°60' E 026°12'4 8.1
2017-Jul-24 21:30N 71°04' E 026°14'4 7.7
2017-Jul-24 21:00N 71°04' E 026°02'3 5.7
2017-Jul-24 20:29N 71°03' E 025°54'0 0.0
2017-Jul-24 19:59N 71°03' E 025°54'0 0.0
2017-Jul-24 19:29N 71°03' E 025°54'0 0.0
2017-Jul-24 18:59N 71°03' E 025°54'0 0.0
2017-Jul-24 18:29N 71°03' E 025°54'0 1.0
2017-Jul-24 18:00N 71°03' E 025°55'0 0.1
2017-Jul-24 17:29N 71°03' E 025°55'0 0.0
2017-Jul-24 16:59N 71°03' E 025°55'0 0.0
2017-Jul-24 16:28N 71°03' E 025°55'0 0.9
2017-Jul-24 15:59N 71°03' E 025°54'0 0.0
2017-Jul-24 12:59N 71°03' E 025°54'0 0.0
2017-Jul-24 12:29N 71°03' E 025°54'0 0.0
2017-Jul-24 11:56N 71°03' E 025°54'0 0.0
2017-Jul-24 11:29N 71°03' E 025°54'0 0.0
2017-Jul-24 10:56N 71°03' E 025°54'0 0.0
2017-Jul-24 10:29N 71°03' E 025°54'0 0.0
2017-Jul-24 09:59N 71°03' E 025°54'0 0.0
2017-Jul-24 09:29N 71°03' E 025°54'0 0.0
2017-Jul-24 08:59N 71°03' E 025°54'0 0.0
2017-Jul-24 08:29N 71°03' E 025°54'0 0.0
2017-Jul-24 07:57N 71°03' E 025°54'0 0.0
2017-Jul-24 07:29N 71°03' E 025°54'0 0.0
2017-Jul-24 06:59N 71°03' E 025°54'0 0.0
2017-Jul-24 06:29N 71°03' E 025°54'0 0.0
2017-Jul-24 06:00N 71°03' E 025°54'0 0.0
2017-Jul-24 05:30N 71°03' E 025°54'0 0.0
2017-Jul-24 05:00N 71°03' E 025°54'0 0.0
2017-Jul-24 04:30N 71°03' E 025°54'0 0.0
2017-Jul-24 04:00N 71°03' E 025°54'0 0.0
2017-Jul-24 03:30N 71°03' E 025°54'0 0.0
2017-Jul-24 03:00N 71°03' E 025°54'0 0.0
2017-Jul-24 02:30N 71°03' E 025°54'0 0.0
2017-Jul-24 02:00N 71°03' E 025°54'0 0.0
2017-Jul-24 01:30N 71°03' E 025°54'0 0.0
2017-Jul-24 00:57N 71°03' E 025°54'0 0.0
2017-Jul-24 00:30N 71°03' E 025°54'0 0.0
2017-Jul-24 00:00N 71°03' E 025°54'0 0.0
2017-Jul-23 23:30N 71°03' E 025°54'0 0.0
2017-Jul-23 23:00N 71°03' E 025°54'0 0.0
2017-Jul-23 22:30N 71°03' E 025°54'0 0.0
2017-Jul-23 22:00N 71°03' E 025°54'0 0.0
2017-Jul-23 21:30N 71°03' E 025°54'0 0.0
2017-Jul-23 21:00N 71°03' E 025°54'0 0.0
2017-Jul-23 20:30N 71°03' E 025°54'0 0.0
2017-Jul-23 20:00N 71°03' E 025°54'0 0.0
2017-Jul-23 19:30N 71°03' E 025°54'0 0.0
2017-Jul-23 19:00N 71°03' E 025°54'0 0.0
2017-Jul-23 18:30N 71°03' E 025°54'0 0.0
2017-Jul-23 18:00N 71°03' E 025°54'0 0.0
2017-Jul-23 17:30N 71°03' E 025°54'0 0.0
2017-Jul-23 17:00N 71°03' E 025°54'0 0.0
2017-Jul-23 16:30N 71°03' E 025°54'0 0.0
2017-Jul-23 16:00N 71°03' E 025°54'0 0.0
2017-Jul-23 15:30N 71°03' E 025°54'0 0.0
2017-Jul-23 15:00N 71°03' E 025°54'0 0.0
2017-Jul-23 14:30N 71°03' E 025°54'0 0.0
2017-Jul-23 14:00N 71°03' E 025°54'0 0.0
2017-Jul-23 13:30N 71°03' E 025°54'0 0.0
2017-Jul-23 13:00N 71°03' E 025°54'0 0.0
2017-Jul-23 12:30N 71°03' E 025°54'0 0.0
2017-Jul-23 12:00N 71°03' E 025°54'0 0.0
2017-Jul-23 11:30N 71°03' E 025°54'0 0.0
2017-Jul-23 11:00N 71°03' E 025°54'0 0.0
2017-Jul-23 10:30N 71°03' E 025°54'0 0.0
2017-Jul-23 10:00N 71°03' E 025°54'0 0.0
2017-Jul-23 09:30N 71°03' E 025°54'0 0.0
2017-Jul-23 09:00N 71°03' E 025°54'0 0.0
2017-Jul-23 08:30N 71°03' E 025°54'0 0.0
2017-Jul-23 08:00N 71°03' E 025°54'0 0.0
2017-Jul-23 07:30N 71°03' E 025°54'0 0.0
2017-Jul-23 07:00N 71°03' E 025°54'0 0.0
2017-Jul-23 06:30N 71°03' E 025°54'0 0.0
2017-Jul-23 05:57N 71°03' E 025°54'0 0.0
2017-Jul-23 05:30N 71°03' E 025°54'0 0.0
2017-Jul-23 05:00N 71°03' E 025°54'0 0.0
2017-Jul-23 04:30N 71°03' E 025°54'0 0.0
2017-Jul-23 04:00N 71°03' E 025°54'0 0.0
2017-Jul-23 03:30N 71°03' E 025°54'0 0.0
2017-Jul-23 03:00N 71°03' E 025°54'0 0.0
2017-Jul-23 02:30N 71°03' E 025°54'0 0.0
2017-Jul-23 02:00N 71°03' E 025°54'0 0.0
2017-Jul-23 01:30N 71°03' E 025°54'0 0.0
2017-Jul-23 01:00N 71°03' E 025°54'0 0.0
2017-Jul-23 00:30N 71°03' E 025°54'0 0.0
2017-Jul-23 00:00N 71°03' E 025°54'0 0.0
2017-Jul-22 23:30N 71°03' E 025°54'0 0.0
2017-Jul-22 23:00N 71°03' E 025°54'0 0.0
2017-Jul-22 22:30N 71°03' E 025°54'0 0.0
2017-Jul-22 22:00N 71°03' E 025°54'0 0.0
2017-Jul-22 21:30N 71°03' E 025°54'0 0.0
2017-Jul-22 21:00N 71°03' E 025°54'0 0.0
2017-Jul-22 20:30N 71°03' E 025°54'0 0.0
2017-Jul-22 20:00N 71°03' E 025°54'0 0.0
2017-Jul-22 19:30N 71°03' E 025°54'0 0.0
2017-Jul-22 19:00N 71°03' E 025°54'0 0.0
2017-Jul-22 18:30N 71°03' E 025°54'0 0.0
2017-Jul-22 18:00N 71°03' E 025°54'0 0.0
2017-Jul-22 17:30N 71°03' E 025°54'0 0.0
2017-Jul-22 17:00N 71°03' E 025°54'0 0.0
2017-Jul-22 16:30N 71°03' E 025°54'0 0.0
2017-Jul-22 16:00N 71°03' E 025°54'0 0.0
2017-Jul-22 15:30N 71°03' E 025°54'0 0.0
2017-Jul-22 15:00N 71°03' E 025°54'0 0.0
2017-Jul-22 14:00N 71°03' E 025°54'0 0.0
2017-Jul-22 13:30N 71°03' E 025°54'0 0.0
2017-Jul-22 13:00N 71°03' E 025°54'0 0.0
2017-Jul-22 12:30N 71°03' E 025°54'0 0.0
2017-Jul-22 12:00N 71°03' E 025°54'0 0.0
2017-Jul-22 11:24N 71°03' E 025°54'0 0.0
2017-Jul-22 11:00N 71°03' E 025°54'0 0.0
2017-Jul-22 10:30N 71°03' E 025°54'0 0.0
2017-Jul-22 10:00N 71°03' E 025°54'0 0.0
2017-Jul-22 09:30N 71°03' E 025°54'0 0.0
2017-Jul-22 08:57N 71°03' E 025°54'0 0.0
2017-Jul-22 08:27N 71°03' E 025°54'0 0.0
2017-Jul-22 08:00N 71°03' E 025°54'0 0.0
2017-Jul-22 07:30N 71°03' E 025°54'0 0.0
2017-Jul-22 07:00N 71°03' E 025°54'0 0.0
2017-Jul-22 06:30N 71°03' E 025°54'0 0.0
2017-Jul-22 05:57N 71°03' E 025°54'0 0.0
2017-Jul-22 05:30N 71°03' E 025°54'0 0.0
2017-Jul-22 05:00N 71°03' E 025°54'0 0.0
2017-Jul-22 04:30N 71°03' E 025°54'0 0.0
2017-Jul-22 04:00N 71°03' E 025°54'0 0.0
2017-Jul-22 03:30N 71°03' E 025°54'0 0.0
2017-Jul-22 03:00N 71°03' E 025°54'0 0.0
2017-Jul-22 02:30N 71°03' E 025°54'0 0.0
2017-Jul-22 02:00N 71°03' E 025°54'0 0.0
2017-Jul-22 01:30N 71°03' E 025°54'0 0.0
2017-Jul-22 01:00N 71°03' E 025°54'0 0.0
2017-Jul-22 00:30N 71°03' E 025°54'0 0.0
2017-Jul-22 00:00N 71°03' E 025°54'0 0.0
2017-Jul-21 23:30N 71°03' E 025°54'0 0.0
2017-Jul-21 23:00N 71°03' E 025°54'0 0.0
2017-Jul-21 22:30N 71°03' E 025°54'0 0.0
2017-Jul-21 22:00N 71°03' E 025°54'0 0.0
2017-Jul-21 21:30N 71°03' E 025°54'0 0.0
2017-Jul-21 21:00N 71°03' E 025°54'0 0.0
2017-Jul-21 20:30N 71°03' E 025°54'0 0.0
2017-Jul-21 20:00N 71°03' E 025°54'0 0.0
2017-Jul-21 19:30N 71°03' E 025°54'0 0.0
2017-Jul-21 19:00N 71°03' E 025°54'0 0.0
2017-Jul-21 18:30N 71°03' E 025°54'0 0.0
2017-Jul-21 18:00N 71°03' E 025°54'0 0.0
2017-Jul-21 17:30N 71°03' E 025°54'0 0.0
2017-Jul-21 17:00N 71°03' E 025°54'0 0.0
2017-Jul-21 16:30N 71°03' E 025°54'0 0.0
2017-Jul-21 16:00N 71°03' E 025°54'0 0.0
2017-Jul-21 15:30N 71°03' E 025°54'0 0.0
2017-Jul-21 15:00N 71°03' E 025°54'0 0.0
2017-Jul-21 14:27N 71°03' E 025°54'0 0.0
2017-Jul-21 14:00N 71°03' E 025°54'0 0.0
2017-Jul-21 13:30N 71°03' E 025°54'0 0.0
2017-Jul-21 13:00N 71°03' E 025°54'0 0.0
2017-Jul-21 12:30N 71°03' E 025°54'0 0.0
2017-Jul-21 12:00N 71°03' E 025°54'0 0.0
2017-Jul-21 11:30N 71°03' E 025°54'0 0.0
2017-Jul-21 11:00N 71°03' E 025°54'0 0.0
2017-Jul-21 10:30N 71°03' E 025°54'0 0.0
2017-Jul-21 10:00N 71°03' E 025°54'0 0.0
2017-Jul-21 09:30N 71°03' E 025°54'0 0.0
2017-Jul-21 09:00N 71°03' E 025°54'0 0.0
2017-Jul-21 08:30N 71°03' E 025°54'0 0.0
2017-Jul-21 08:00N 71°03' E 025°54'0 0.0
2017-Jul-21 07:30N 71°03' E 025°54'0 0.0
2017-Jul-21 07:00N 71°03' E 025°54'0 0.0
2017-Jul-21 06:30N 71°03' E 025°54'0 0.0
2017-Jul-21 06:00N 71°03' E 025°54'0 0.0
2017-Jul-21 05:27N 71°03' E 025°54'0 0.0
2017-Jul-21 05:00N 71°03' E 025°54'0 0.0
2017-Jul-21 04:27N 71°03' E 025°54'0 0.0
2017-Jul-21 04:00N 71°03' E 025°54'0 0.0
2017-Jul-21 03:30N 71°03' E 025°54'0 0.0
2017-Jul-21 03:00N 71°03' E 025°54'0 0.0
2017-Jul-21 02:30N 71°03' E 025°54'0 0.0
2017-Jul-21 01:57N 71°03' E 025°54'0 0.0
2017-Jul-21 01:27N 71°03' E 025°54'0 0.0
2017-Jul-21 01:00N 71°03' E 025°54'0 0.0
2017-Jul-21 00:30N 71°03' E 025°54'0 0.0
2017-Jul-21 00:00N 71°03' E 025°54'0 0.0
2017-Jul-20 23:30N 71°03' E 025°54'0 0.0
2017-Jul-20 23:00N 71°03' E 025°54'0 0.0
2017-Jul-20 22:30N 71°03' E 025°54'0 0.0
2017-Jul-20 22:00N 71°03' E 025°54'0 0.0
2017-Jul-20 21:30N 71°03' E 025°54'0 0.0
2017-Jul-20 21:00N 71°03' E 025°54'0 0.0
2017-Jul-20 20:30N 71°03' E 025°54'0 0.0
2017-Jul-20 20:00N 71°03' E 025°54'0 0.0
2017-Jul-20 19:30N 71°03' E 025°54'0 0.0
2017-Jul-20 19:00N 71°03' E 025°54'0 0.0
2017-Jul-20 18:30N 71°03' E 025°54'0 0.0
2017-Jul-20 18:00N 71°03' E 025°54'0 0.0
2017-Jul-20 17:30N 71°03' E 025°54'0 0.0
2017-Jul-20 17:00N 71°03' E 025°54'0 0.0
2017-Jul-20 16:30N 71°03' E 025°54'0 0.0
2017-Jul-20 16:00N 71°03' E 025°54'0 0.0
2017-Jul-20 15:30N 71°03' E 025°54'0 0.0
2017-Jul-20 15:00N 71°03' E 025°54'0 0.0
2017-Jul-20 14:00N 71°03' E 025°54'0 0.0
2017-Jul-20 13:30N 71°03' E 025°54'0 0.0
2017-Jul-20 13:00N 71°03' E 025°54'0 0.0
2017-Jul-20 12:30N 71°03' E 025°54'0 0.0
2017-Jul-20 12:00N 71°03' E 025°54'0 0.0
2017-Jul-20 11:30N 71°03' E 025°54'0 0.0
2017-Jul-20 11:00N 71°03' E 025°54'0 0.0
2017-Jul-20 10:30N 71°03' E 025°54'0 0.0
2017-Jul-20 10:00N 71°03' E 025°54'0 0.0
2017-Jul-20 09:30N 71°03' E 025°54'0 0.0
2017-Jul-20 09:00N 71°03' E 025°54'0 0.0
2017-Jul-20 08:30N 71°03' E 025°54'0 0.0
2017-Jul-20 08:00N 71°03' E 025°54'0 0.0
2017-Jul-20 07:30N 71°03' E 025°54'0 0.0
2017-Jul-20 06:57N 71°03' E 025°54'0 0.0
2017-Jul-20 06:30N 71°03' E 025°54'0 0.0
2017-Jul-20 06:00N 71°03' E 025°54'0 0.0
2017-Jul-20 05:30N 71°03' E 025°54'0 0.0
2017-Jul-20 05:00N 71°03' E 025°54'0 0.0
2017-Jul-20 04:30N 71°03' E 025°54'0 0.0
2017-Jul-20 04:00N 71°03' E 025°54'0 0.0
2017-Jul-20 03:30N 71°03' E 025°54'0 0.0
2017-Jul-20 03:00N 71°03' E 025°54'0 0.0
2017-Jul-20 02:30N 71°03' E 025°54'0 0.0
2017-Jul-20 02:00N 71°03' E 025°54'0 0.0
2017-Jul-20 01:30N 71°03' E 025°54'0 0.0
2017-Jul-20 01:00N 71°03' E 025°54'0 0.0
2017-Jul-20 00:30N 71°03' E 025°54'0 0.0
2017-Jul-20 00:00N 71°03' E 025°54'0 0.0
2017-Jul-19 23:30N 71°03' E 025°54'0 0.0
2017-Jul-19 23:00N 71°03' E 025°54'0 0.0
2017-Jul-19 22:30N 71°03' E 025°54'0 0.0
2017-Jul-19 22:00N 71°03' E 025°54'0 0.0
2017-Jul-19 21:30N 71°03' E 025°54'0 0.0
2017-Jul-19 21:00N 71°03' E 025°54'0 0.0
2017-Jul-19 20:30N 71°03' E 025°54'0 0.0
2017-Jul-19 20:00N 71°03' E 025°54'0 0.0
2017-Jul-19 19:30N 71°03' E 025°54'0 0.0
2017-Jul-19 19:00N 71°03' E 025°54'0 0.0
2017-Jul-19 18:30N 71°03' E 025°54'0 0.0
2017-Jul-19 17:57N 71°03' E 025°54'0 0.0
2017-Jul-19 17:30N 71°03' E 025°54'0 0.0
2017-Jul-19 17:00N 71°03' E 025°54'0 0.0
2017-Jul-19 16:30N 71°03' E 025°54'0 0.0
2017-Jul-19 16:00N 71°03' E 025°54'0 0.0
2017-Jul-19 15:30N 71°03' E 025°54'0 0.0
2017-Jul-19 15:00N 71°03' E 025°54'0 0.0
2017-Jul-19 14:31N 71°03' E 025°54'0 0.0
2017-Jul-19 14:00N 71°03' E 025°54'0 0.0
2017-Jul-19 13:31N 71°03' E 025°54'0 0.0
2017-Jul-19 13:00N 71°03' E 025°54'0 0.0
2017-Jul-19 12:28N 71°03' E 025°54'0 0.0
2017-Jul-19 12:01N 71°03' E 025°54'0 0.0
2017-Jul-19 11:31N 71°03' E 025°54'0 0.0
2017-Jul-19 10:58N 71°03' E 025°54'0 0.0
2017-Jul-19 10:31N 71°03' E 025°54'0 0.0
2017-Jul-19 09:58N 71°03' E 025°54'0 0.0
2017-Jul-19 09:28N 71°03' E 025°54'0 0.0
2017-Jul-19 08:58N 71°03' E 025°54'0 0.0
2017-Jul-19 08:28N 71°03' E 025°54'0 0.0
2017-Jul-19 07:58N 71°03' E 025°54'0 0.0
2017-Jul-19 07:28N 71°03' E 025°54'0 0.0
2017-Jul-19 06:58N 71°03' E 025°54'0 0.0
2017-Jul-19 06:28N 71°03' E 025°54'0 0.0
2017-Jul-19 05:58N 71°03' E 025°54'0 0.0
2017-Jul-19 05:28N 71°03' E 025°54'0 0.0
2017-Jul-19 04:58N 71°03' E 025°54'0 0.0
2017-Jul-19 04:28N 71°03' E 025°54'0 0.0
2017-Jul-19 03:58N 71°03' E 025°54'0 0.0
2017-Jul-19 03:28N 71°03' E 025°54'0 0.0
2017-Jul-19 02:58N 71°03' E 025°54'0 0.0
2017-Jul-19 02:28N 71°03' E 025°54'0 0.0
2017-Jul-19 01:58N 71°03' E 025°54'0 0.0
2017-Jul-19 01:28N 71°03' E 025°54'0 0.0
2017-Jul-19 00:58N 71°03' E 025°54'0 0.0
2017-Jul-19 00:28N 71°03' E 025°54'0 0.0
2017-Jul-18 23:58N 71°03' E 025°54'0 0.0
2017-Jul-18 23:25N 71°03' E 025°54'0 0.0
2017-Jul-18 22:58N 71°03' E 025°54'0 0.0
2017-Jul-18 22:28N 71°03' E 025°54'0 0.0
2017-Jul-18 21:58N 71°03' E 025°54'0 0.0
2017-Jul-18 21:28N 71°03' E 025°54'0 0.0
2017-Jul-18 20:58N 71°03' E 025°54'0 0.0
2017-Jul-18 20:28N 71°03' E 025°54'0 0.0
2017-Jul-18 19:58N 71°03' E 025°54'0 0.0
2017-Jul-18 19:28N 71°03' E 025°54'0 0.0
2017-Jul-18 18:58N 71°03' E 025°54'0 0.0
2017-Jul-18 18:28N 71°03' E 025°54'0 0.0
2017-Jul-18 17:58N 71°03' E 025°54'0 0.0
2017-Jul-18 17:28N 71°03' E 025°54'0 0.0
2017-Jul-18 16:55N 71°03' E 025°54'0 0.0
2017-Jul-18 16:28N 71°03' E 025°54'0 0.0
2017-Jul-18 15:58N 71°03' E 025°54'0 0.0
2017-Jul-18 15:28N 71°03' E 025°54'0 0.0
2017-Jul-18 14:58N 71°03' E 025°54'0 0.0
2017-Jul-18 13:58N 71°03' E 025°54'0 0.0
2017-Jul-18 13:28N 71°03' E 025°54'0 0.0
2017-Jul-18 12:55N 71°03' E 025°54'0 0.0
2017-Jul-18 12:28N 71°03' E 025°54'0 0.0
2017-Jul-18 11:58N 71°03' E 025°54'0 0.0
2017-Jul-18 11:25N 71°03' E 025°54'0 0.0
2017-Jul-18 10:58N 71°03' E 025°54'0 0.0
2017-Jul-18 10:28N 71°03' E 025°54'0 0.0
2017-Jul-18 09:58N 71°03' E 025°54'0 0.0
2017-Jul-18 09:28N 71°03' E 025°54'0 0.0
2017-Jul-18 08:58N 71°03' E 025°54'0 0.0
2017-Jul-18 08:28N 71°03' E 025°54'0 0.0
2017-Jul-18 07:58N 71°03' E 025°54'0 0.0
2017-Jul-18 07:25N 71°03' E 025°54'0 0.0
2017-Jul-18 06:58N 71°03' E 025°54'0 0.0
2017-Jul-18 06:28N 71°03' E 025°54'0 0.0
2017-Jul-18 05:58N 71°03' E 025°54'0 0.0
2017-Jul-18 05:28N 71°03' E 025°54'0 0.0
2017-Jul-18 04:58N 71°03' E 025°54'0 0.0
2017-Jul-18 04:28N 71°03' E 025°54'0 0.0
2017-Jul-18 03:58N 71°03' E 025°54'0 0.0
2017-Jul-18 03:28N 71°03' E 025°54'0 0.0
2017-Jul-18 02:58N 71°03' E 025°54'0 0.0
2017-Jul-18 02:28N 71°03' E 025°54'0 0.0
2017-Jul-18 01:58N 71°03' E 025°54'0 0.0
2017-Jul-18 01:25N 71°03' E 025°54'0 0.0
2017-Jul-18 00:58N 71°03' E 025°54'0 0.0
2017-Jul-18 00:28N 71°03' E 025°54'0 0.0
2017-Jul-17 23:58N 71°03' E 025°54'0 0.0
2017-Jul-17 23:28N 71°03' E 025°54'0 0.0
2017-Jul-17 22:58N 71°03' E 025°54'0 0.0
2017-Jul-17 22:28N 71°03' E 025°54'0 0.0
2017-Jul-17 21:58N 71°03' E 025°54'0 0.0
2017-Jul-17 21:28N 71°03' E 025°54'0 0.0
2017-Jul-17 20:55N 71°03' E 025°54'0 0.0
2017-Jul-17 20:28N 71°03' E 025°54'0 0.0
2017-Jul-17 19:58N 71°03' E 025°54'0 0.0
2017-Jul-17 19:25N 71°03' E 025°54'0 0.0
2017-Jul-17 18:58N 71°03' E 025°54'0 0.0
2017-Jul-17 18:28N 71°03' E 025°54'0 0.0
2017-Jul-17 17:58N 71°03' E 025°54'0 0.0
2017-Jul-17 17:28N 71°03' E 025°54'0 0.0
2017-Jul-17 16:58N 71°03' E 025°54'0 0.0
2017-Jul-17 16:25N 71°03' E 025°54'0 0.0
2017-Jul-17 15:58N 71°03' E 025°54'0 0.0
2017-Jul-17 15:28N 71°03' E 025°54'0 0.0
2017-Jul-17 14:58N 71°03' E 025°54'0 0.0
2017-Jul-17 14:28N 71°03' E 025°54'0 0.0
2017-Jul-17 13:58N 71°03' E 025°54'0 0.0
2017-Jul-17 13:22N 71°03' E 025°54'0 0.0
2017-Jul-17 12:58N 71°03' E 025°54'0 0.0
2017-Jul-17 12:28N 71°03' E 025°54'0 0.0
2017-Jul-17 11:58N 71°03' E 025°54'0 0.0
2017-Jul-17 11:28N 71°03' E 025°54'0 0.0
2017-Jul-17 10:58N 71°03' E 025°54'0 0.0
2017-Jul-17 10:28N 71°03' E 025°54'0 0.0
2017-Jul-17 09:58N 71°03' E 025°54'0 0.0
2017-Jul-17 09:28N 71°03' E 025°54'0 0.0
2017-Jul-17 08:58N 71°03' E 025°54'0 0.0
2017-Jul-17 08:28N 71°03' E 025°54'0 0.0
2017-Jul-17 07:55N 71°03' E 025°54'0 0.0
2017-Jul-17 07:28N 71°03' E 025°54'0 0.0
2017-Jul-17 06:58N 71°03' E 025°54'0 0.0
2017-Jul-17 06:25N 71°03' E 025°54'0 0.0
2017-Jul-17 05:58N 71°03' E 025°54'0 0.0
2017-Jul-17 05:28N 71°03' E 025°54'0 0.0
2017-Jul-17 04:58N 71°03' E 025°54'0 0.0
2017-Jul-17 04:28N 71°03' E 025°54'0 0.0
2017-Jul-17 03:58N 71°03' E 025°54'0 0.0
2017-Jul-17 03:28N 71°03' E 025°54'0 0.0
2017-Jul-17 02:58N 71°03' E 025°54'0 0.0
2017-Jul-17 02:28N 71°03' E 025°54'0 0.0
2017-Jul-17 01:58N 71°03' E 025°54'0 0.0
2017-Jul-17 01:28N 71°03' E 025°54'0 0.0
2017-Jul-17 00:58N 71°03' E 025°54'0 0.0
2017-Jul-17 00:28N 71°03' E 025°54'0 0.0
2017-Jul-16 23:58N 71°03' E 025°54'0 0.0
2017-Jul-16 23:28N 71°03' E 025°54'0 0.0
2017-Jul-16 22:58N 71°03' E 025°54'0 0.0
2017-Jul-16 22:28N 71°03' E 025°54'0 0.0
2017-Jul-16 21:58N 71°03' E 025°54'0 0.0
2017-Jul-16 21:28N 71°03' E 025°54'0 0.0
2017-Jul-16 20:58N 71°03' E 025°54'0 0.0
2017-Jul-16 20:28N 71°03' E 025°54'0 0.0
2017-Jul-16 19:58N 71°03' E 025°54'0 0.0
2017-Jul-16 19:28N 71°03' E 025°54'0 0.0
2017-Jul-16 18:58N 71°03' E 025°54'0 0.0
2017-Jul-16 18:28N 71°03' E 025°54'0 0.0
2017-Jul-16 17:58N 71°03' E 025°54'0 0.0
2017-Jul-16 17:28N 71°03' E 025°54'0 0.0
2017-Jul-16 16:58N 71°03' E 025°54'0 0.0
2017-Jul-16 16:28N 71°03' E 025°54'0 0.0
2017-Jul-16 15:58N 71°03' E 025°54'0 0.0
2017-Jul-16 15:28N 71°03' E 025°54'0 0.0
2017-Jul-16 14:58N 71°03' E 025°54'0 0.0
2017-Jul-16 14:25N 71°03' E 025°54'0 0.0
2017-Jul-16 13:58N 71°03' E 025°54'0 0.0
2017-Jul-16 13:28N 71°03' E 025°54'0 0.0
2017-Jul-16 12:55N 71°03' E 025°54'0 0.0
2017-Jul-16 12:28N 71°03' E 025°54'0 0.0
2017-Jul-16 11:58N 71°03' E 025°54'0 0.0
2017-Jul-16 11:28N 71°03' E 025°54'0 0.0
2017-Jul-16 10:58N 71°03' E 025°54'0 0.0
2017-Jul-16 10:28N 71°03' E 025°54'0 0.0
2017-Jul-16 09:58N 71°03' E 025°54'0 0.0
2017-Jul-16 09:25N 71°03' E 025°54'0 0.0
2017-Jul-16 08:58N 71°03' E 025°54'0 0.0
2017-Jul-16 08:25N 71°03' E 025°54'0 0.0
2017-Jul-16 07:58N 71°03' E 025°54'0 0.0
2017-Jul-16 07:28N 71°03' E 025°54'0 0.0
2017-Jul-16 06:58N 71°03' E 025°54'0 0.0
2017-Jul-16 06:28N 71°03' E 025°54'0 0.0
2017-Jul-16 05:58N 71°03' E 025°54'0 0.0
2017-Jul-16 05:28N 71°03' E 025°54'0 0.0
2017-Jul-16 04:58N 71°03' E 025°54'0 0.0
2017-Jul-16 04:25N 71°03' E 025°54'0 0.0
2017-Jul-16 03:58N 71°03' E 025°54'0 0.0
2017-Jul-16 03:25N 71°03' E 025°54'0 0.0
2017-Jul-16 02:58N 71°03' E 025°54'0 0.0
2017-Jul-16 02:28N 71°03' E 025°54'0 0.0
2017-Jul-16 01:58N 71°03' E 025°54'0 0.0
2017-Jul-16 01:28N 71°03' E 025°54'0 0.0
2017-Jul-16 00:58N 71°03' E 025°54'0 0.0
2017-Jul-16 00:28N 71°03' E 025°54'0 0.0
2017-Jul-15 23:58N 71°03' E 025°54'0 0.0
2017-Jul-15 23:28N 71°03' E 025°54'0 0.0
2017-Jul-15 22:58N 71°03' E 025°54'0 0.0
2017-Jul-15 22:28N 71°03' E 025°54'0 0.0
2017-Jul-15 21:58N 71°03' E 025°54'0 0.0
2017-Jul-15 21:28N 71°03' E 025°54'0 0.0
2017-Jul-15 20:58N 71°03' E 025°54'0 0.0
2017-Jul-15 20:28N 71°03' E 025°54'0 0.0
2017-Jul-15 19:58N 71°03' E 025°54'0 0.0
2017-Jul-15 19:28N 71°03' E 025°54'0 0.0
2017-Jul-15 18:58N 71°03' E 025°54'0 0.0
2017-Jul-15 18:28N 71°03' E 025°54'0 0.0
2017-Jul-15 17:55N 71°03' E 025°54'0 0.0
2017-Jul-15 17:28N 71°03' E 025°54'0 0.0
2017-Jul-15 16:58N 71°03' E 025°54'0 0.0
2017-Jul-15 16:28N 71°03' E 025°54'0 0.0
2017-Jul-15 15:58N 71°03' E 025°54'0 0.0
2017-Jul-15 15:28N 71°03' E 025°54'0 0.0
2017-Jul-15 14:58N 71°03' E 025°54'0 0.0
2017-Jul-15 13:58N 71°03' E 025°54'0 0.0
2017-Jul-15 13:28N 71°03' E 025°54'0 0.0
2017-Jul-15 12:58N 71°03' E 025°54'0 0.0
2017-Jul-15 12:28N 71°03' E 025°54'0 0.0
2017-Jul-15 11:58N 71°03' E 025°54'0 0.0
2017-Jul-15 11:19N 71°03' E 025°54'0 0.0
2017-Jul-15 10:55N 71°03' E 025°54'0 0.0
2017-Jul-15 10:28N 71°03' E 025°54'0 0.0
2017-Jul-15 09:58N 71°03' E 025°54'0 0.0
2017-Jul-15 09:28N 71°03' E 025°54'0 0.0
2017-Jul-15 08:58N 71°03' E 025°54'0 0.0
2017-Jul-15 08:28N 71°03' E 025°54'0 0.0
2017-Jul-15 07:58N 71°03' E 025°54'0 0.0
2017-Jul-15 07:28N 71°03' E 025°54'0 0.0
2017-Jul-15 06:58N 71°03' E 025°54'0 0.0
2017-Jul-15 06:28N 71°03' E 025°54'0 0.0
2017-Jul-15 05:58N 71°03' E 025°54'0 0.0
2017-Jul-15 05:28N 71°03' E 025°54'0 0.0
2017-Jul-15 04:58N 71°03' E 025°54'0 0.0
2017-Jul-15 04:28N 71°03' E 025°54'  

Dump ship's entire track history